Baia da Traicao, Brazil
Current Conditions -  °F | °C
As of 4:00 AM on Sunday 26 Oct 2014 (Local Time) from SBJP Reporting Station
Few Clouds Few Clouds  
Wind Chill: 72°   Ceiling: Unl
Heat Index: 72°   Visibility: 6mi
Dew Point: 66°   Wind: 0mph
Humidity: 83%   Direction: NA
Pressure: 29.91"   Gusts: NA
Location:  6.69°S, 34.94°W
Report Text: SBJP 260700Z 00000KT 9999 FEW020 22/19 Q1013
Loading
Personal Weather Stations






























Interactive Weather Map
Tropical Storm Tracking
New forecast layout! Learn more

10-Day Weather Forecast

Advertisements
Track Severe Weather on mobile